Terminal Aerodrome Forecast
Issued by NWS

Current Version | Previous Version | Text Only | Print | Product List | Glossary On
Versions: 1 2 3 4 5 6 7 8 9 10 11 12 13 14 15 16 17 18 19 20
000
FTUS41 KBTV 222320
TAFSLK
TAF
KSLK 222320Z 2300/2324 VRB03KT P6SM OVC025
     FM230600 15005KT 6SM -FZDZSN SCT007 OVC020
     FM231000 14006KT 5SM -SNRA OVC028
     FM231400 14008KT 3SM -RA BR OVC020 WS020/18035KT=

USA.gov is the U.S. government's official web portal to all federal, state and local government web resources and services.